Time;durP1;ratioP1;P1;durP2;ratioP2;P2;SDS_P1;SDS_P2;PMS_P1;PMS_P2;Temp;Humidity;BMP_temperature;BMP_pressure;BME280_temperature;BME280_humidity;BME280_pressure;Samples;Min_cycle;Max_cycle;Signal;HPM_P1;HPM_P2
2020/12/24 00:01:47;;;;;;;8.33;1.50;;;10.20;99.90;;;;;;5055276;28;20200;-66
2020/12/24 00:04:13;;;;;;;7.17;2.13;;;10.10;99.90;;;;;;5055278;28;20165;-67
2020/12/24 00:06:38;;;;;;;4.70;1.20;;;10.00;99.90;;;;;;5055508;28;20240;-66
2020/12/24 00:09:04;;;;;;;7.60;1.37;;;10.00;99.90;;;;;;5055354;28;20192;-66
2020/12/24 00:11:29;;;;;;;7.90;1.60;;;10.00;99.90;;;;;;5055267;28;20215;-67
2020/12/24 00:13:55;;;;;;;7.23;2.30;;;10.10;99.90;;;;;;5055045;28;20169;-67
2020/12/24 00:16:21;;;;;;;7.23;2.07;;;10.00;99.90;;;;;;5055042;28;20183;-66
2020/12/24 00:18:46;;;;;;;6.60;1.67;;;10.00;99.90;;;;;;5055224;28;20255;-66
2020/12/24 00:21:12;;;;;;;8.63;1.43;;;10.00;99.90;;;;;;5053574;28;20601;-67
2020/12/24 00:23:37;;;;;;;8.33;1.73;;;10.00;99.90;;;;;;5054942;28;20171;-66
2020/12/24 00:26:04;;;;;;;5.97;1.57;;;9.90;99.90;;;;;;5054901;28;20164;-66
2020/12/24 00:28:31;;;;;;;9.87;1.50;;;9.80;99.90;;;;;;5055039;28;20180;-66
2020/12/24 00:30:57;;;;;;;8.90;1.70;;;9.70;99.90;;;;;;5054887;28;20440;-66
2020/12/24 00:33:23;;;;;;;4.40;1.37;;;9.70;99.90;;;;;;5054756;28;20748;-66
2020/12/24 00:35:48;;;;;;;10.03;1.57;;;9.70;99.90;;;;;;5054710;28;20409;-67
2020/12/24 00:38:14;;;;;;;9.37;1.57;;;9.80;99.90;;;;;;5054934;28;20165;-66
2020/12/24 00:40:39;;;;;;;5.60;1.30;;;9.60;99.90;;;;;;5054471;28;20246;-66
2020/12/24 00:43:05;;;;;;;7.13;1.73;;;9.60;99.90;;;;;;5054501;28;20541;-66
2020/12/24 00:45:30;;;;;;;10.90;1.80;;;9.50;99.90;;;;;;5054166;28;20227;-66
2020/12/24 00:47:56;;;;;;;5.03;1.30;;;9.60;99.90;;;;;;5054361;28;20217;-67
2020/12/24 00:50:22;;;;;;;5.00;1.10;;;9.50;99.90;;;;;;5054161;28;20196;-67
2020/12/24 00:52:47;;;;;;;9.70;1.63;;;9.40;99.90;;;;;;5054256;28;20182;-66
2020/12/24 00:55:13;;;;;;;8.23;1.57;;;9.50;99.90;;;;;;5054311;28;20252;-66
2020/12/24 00:57:38;;;;;;;4.17;1.47;;;9.60;99.90;;;;;;5054222;28;20250;-66
2020/12/24 01:00:06;;;;;;;6.17;1.30;;;9.60;99.90;;;;;;5054076;28;20276;-66
2020/12/24 01:02:32;;;;;;;7.10;1.83;;;9.60;99.90;;;;;;5054274;28;20188;-66
2020/12/24 01:04:58;;;;;;;7.43;1.60;;;9.60;99.90;;;;;;5054011;28;20792;-66
2020/12/24 01:07:23;;;;;;;8.30;2.07;;;9.60;99.90;;;;;;5052660;28;20190;-66
2020/12/24 01:09:49;;;;;;;5.10;1.80;;;9.50;99.90;;;;;;5053820;28;20681;-66
2020/12/24 01:12:14;;;;;;;9.97;2.47;;;9.40;99.90;;;;;;5053869;28;20173;-66
2020/12/24 01:14:40;;;;;;;8.60;1.90;;;9.50;99.90;;;;;;5053856;28;20177;-66
2020/12/24 01:17:05;;;;;;;12.23;2.37;;;9.60;99.90;;;;;;5053839;28;20204;-66
2020/12/24 01:19:31;;;;;;;7.53;1.20;;;9.50;99.90;;;;;;5052396;28;20188;-66
2020/12/24 01:21:56;;;;;;;8.53;1.50;;;9.50;99.90;;;;;;5052590;28;20283;-66
2020/12/24 01:24:22;;;;;;;6.80;2.07;;;9.50;99.90;;;;;;5053602;28;20203;-66
2020/12/24 01:26:48;;;;;;;7.23;1.70;;;9.50;99.90;;;;;;5053859;28;20173;-66
2020/12/24 01:29:14;;;;;;;6.63;1.83;;;9.50;99.90;;;;;;5053438;28;20618;-66
2020/12/24 01:31:45;;;;;;;5.43;1.60;;;9.40;99.90;;;;;;5053439;28;20228;-66
2020/12/24 01:34:10;;;;;;;5.70;1.97;;;9.50;99.90;;;;;;5053432;28;20489;-66
2020/12/24 01:36:36;;;;;;;6.83;3.13;;;9.30;99.90;;;;;;5053380;28;20810;-66
2020/12/24 01:39:03;;;;;;;7.10;1.70;;;9.50;99.90;;;;;;5053587;28;20860;-66
2020/12/24 01:41:28;;;;;;;6.60;2.00;;;9.50;99.90;;;;;;5053190;28;20424;-66
2020/12/24 01:43:54;;;;;;;11.10;1.63;;;9.40;99.90;;;;;;5053241;28;20494;-66
2020/12/24 01:46:19;;;;;;;3.63;1.50;;;9.30;99.90;;;;;;5053540;28;20212;-67
2020/12/24 01:48:45;;;;;;;4.77;2.10;;;9.40;99.90;;;;;;5053923;28;20176;-66
2020/12/24 01:51:19;;;;;;;7.37;1.67;;;9.30;99.90;;;;;;5053475;28;20212;-65
2020/12/24 01:53:45;;;;;;;5.50;1.30;;;9.40;99.90;;;;;;5053282;28;20150;-66
2020/12/24 01:56:10;;;;;;;6.93;1.40;;;9.40;99.90;;;;;;5053028;28;20526;-66
2020/12/24 01:58:36;;;;;;;7.00;1.50;;;9.30;99.90;;;;;;5052435;28;20574;-66
2020/12/24 02:01:02;;;;;;;11.20;1.87;;;9.40;99.90;;;;;;5052938;28;20213;-66
2020/12/24 02:03:27;;;;;;;3.03;1.20;;;9.30;99.90;;;;;;5052939;28;20176;-66
2020/12/24 02:05:53;;;;;;;12.07;2.00;;;9.20;99.90;;;;;;5052960;28;20177;-67
2020/12/24 02:08:19;;;;;;;8.30;1.97;;;9.30;99.90;;;;;;5052888;28;20175;-65
2020/12/24 02:10:45;;;;;;;5.70;1.50;;;9.30;99.90;;;;;;5052706;28;20294;-65
2020/12/24 02:13:10;;;;;;;4.60;1.50;;;9.20;99.90;;;;;;5052857;28;20494;-65
2020/12/24 02:15:36;;;;;;;6.97;1.60;;;9.10;99.90;;;;;;5052820;28;20578;-65
2020/12/24 02:18:02;;;;;;;7.90;2.10;;;9.20;90.90;;;;;;5052800;28;20519;-65
2020/12/24 02:20:28;;;;;;;3.90;1.40;;;9.10;95.50;;;;;;5051769;28;20200;-65
2020/12/24 02:22:54;;;;;;;10.43;1.65;;;9.10;99.90;;;;;;5052943;28;20176;-65
2020/12/24 02:25:19;;;;;;;6.93;1.70;;;9.20;99.90;;;;;;5052620;28;20173;-65
2020/12/24 02:27:45;;;;;;;4.53;1.37;;;9.20;99.90;;;;;;5052593;28;20185;-67
2020/12/24 02:30:10;;;;;;;7.27;1.67;;;9.10;99.90;;;;;;5052910;28;20289;-66
2020/12/24 02:32:36;;;;;;;5.77;1.57;;;9.10;99.90;;;;;;5053190;28;20165;-65
2020/12/24 02:35:02;;;;;;;9.13;2.00;;;9.10;91.90;;;;;;5052563;28;20667;-67
2020/12/24 02:37:27;;;;;;;10.80;2.07;;;9.00;99.90;;;;;;5052568;28;20230;-66
2020/12/24 02:39:53;;;;;;;8.87;1.70;;;9.20;83.30;;;;;;5052460;28;20441;-66
2020/12/24 02:42:19;;;;;;;7.93;1.23;;;9.10;97.10;;;;;;5052926;28;20197;-66
2020/12/24 02:44:44;;;;;;;8.43;1.40;;;9.20;99.90;;;;;;5052496;28;20170;-66
2020/12/24 02:47:10;;;;;;;6.23;1.33;;;9.20;90.90;;;;;;5052779;28;20558;-66
2020/12/24 02:49:36;;;;;;;9.53;1.20;;;9.20;81.20;;;;;;5052377;28;20221;-66
2020/12/24 02:52:02;;;;;;;3.73;1.30;;;9.10;93.30;;;;;;5052503;28;20191;-66
2020/12/24 02:54:27;;;;;;;8.70;1.87;;;9.20;97.80;;;;;;5052444;28;20416;-66
2020/12/24 02:56:53;;;;;;;9.50;1.53;;;9.10;99.90;;;;;;5052399;28;20178;-67
2020/12/24 02:59:18;;;;;;;5.93;2.00;;;9.20;99.90;;;;;;5052357;28;20164;-66
2020/12/24 03:01:44;;;;;;;7.10;1.53;;;9.30;96.80;;;;;;5052282;28;20671;-66
2020/12/24 03:04:09;;;;;;;6.00;1.20;;;9.20;99.90;;;;;;5050991;28;20588;-66
2020/12/24 03:06:35;;;;;;;7.27;3.50;;;9.20;99.90;;;;;;5052507;28;20631;-66
2020/12/24 03:09:00;;;;;;;8.47;1.30;;;9.20;99.90;;;;;;5053793;28;20196;-66
2020/12/24 03:11:26;;;;;;;6.63;1.70;;;9.30;99.90;;;;;;5056031;28;20248;-65
2020/12/24 03:13:51;;;;;;;4.40;1.40;;;9.20;99.90;;;;;;5054912;28;20664;-66
2020/12/24 03:16:17;;;;;;;9.13;1.77;;;9.40;90.80;;;;;;5056058;28;20540;-66
2020/12/24 03:18:43;;;;;;;12.23;2.03;;;9.40;93.50;;;;;;5056272;28;20695;-66
2020/12/24 03:21:09;;;;;;;7.80;1.77;;;9.50;94.70;;;;;;5054629;28;20636;-65
2020/12/24 03:23:34;;;;;;;4.65;1.48;;;9.30;99.90;;;;;;5055992;28;20170;-66
2020/12/24 03:26:00;;;;;;;7.53;1.80;;;9.30;99.90;;;;;;5055962;28;20174;-65
2020/12/24 03:28:25;;;;;;;6.50;1.97;;;9.50;99.90;;;;;;5055863;28;20179;-66
2020/12/24 03:30:51;;;;;;;7.73;1.50;;;9.50;99.90;;;;;;5055686;28;20200;-65
2020/12/24 03:33:16;;;;;;;9.67;1.60;;;9.50;99.90;;;;;;5056077;28;20167;-66
2020/12/24 03:35:42;;;;;;;11.40;2.13;;;9.50;99.90;;;;;;5056489;28;20198;-66
2020/12/24 03:38:08;;;;;;;8.07;2.07;;;9.50;99.90;;;;;;5056490;28;20172;-66
2020/12/24 03:40:34;;;;;;;4.33;2.07;;;9.50;99.90;;;;;;5055531;28;20205;-65
2020/12/24 03:42:59;;;;;;;14.53;2.00;;;9.40;99.90;;;;;;5055616;28;20413;-65
2020/12/24 03:45:25;;;;;;;3.50;1.10;;;9.40;99.90;;;;;;5055830;28;20173;-65
2020/12/24 03:47:50;;;;;;;8.70;1.90;;;9.30;99.90;;;;;;5055530;28;20169;-66
2020/12/24 03:50:16;;;;;;;3.60;1.10;;;9.40;99.90;;;;;;5055491;28;20201;-65
2020/12/24 03:52:41;;;;;;;9.53;1.50;;;9.50;99.90;;;;;;5055373;28;20236;-65
2020/12/24 03:55:07;;;;;;;6.83;1.90;;;9.50;99.90;;;;;;5054151;28;20165;-65
2020/12/24 03:57:32;;;;;;;6.90;1.33;;;9.50;99.90;;;;;;5055555;28;20162;-65
2020/12/24 03:59:58;;;;;;;8.13;1.30;;;9.40;99.90;;;;;;5055279;28;20193;-65
2020/12/24 04:02:23;;;;;;;7.47;1.50;;;9.40;99.90;;;;;;5055237;28;20180;-65
2020/12/24 04:04:49;;;;;;;5.00;1.50;;;9.60;99.90;;;;;;5055117;28;20179;-65
2020/12/24 04:07:15;;;;;;;6.03;1.43;;;9.60;99.90;;;;;;5055238;28;20238;-66
2020/12/24 04:09:41;;;;;;;10.40;1.53;;;9.50;99.90;;;;;;5053633;28;20228;-66
2020/12/24 04:12:06;;;;;;;4.17;1.37;;;9.40;99.90;;;;;;5053733;28;20878;-66
2020/12/24 04:14:32;;;;;;;6.77;1.50;;;9.50;99.90;;;;;;5055219;28;20657;-66
2020/12/24 04:16:57;;;;;;;3.00;1.53;;;9.50;99.90;;;;;;5055048;28;20256;-66
2020/12/24 04:19:23;;;;;;;8.00;1.57;;;9.40;99.90;;;;;;5054954;28;20197;-66
2020/12/24 04:21:49;;;;;;;6.37;1.87;;;9.30;99.90;;;;;;5054137;28;20740;-66
2020/12/24 04:24:14;;;;;;;5.13;1.40;;;9.30;99.90;;;;;;5055179;28;20222;-64
2020/12/24 04:26:40;;;;;;;8.13;1.50;;;9.40;99.90;;;;;;5054818;28;20207;-66
2020/12/24 04:29:05;;;;;;;8.73;1.70;;;9.40;99.90;;;;;;5054795;28;20179;-66
2020/12/24 04:31:31;;;;;;;6.87;1.70;;;9.30;99.90;;;;;;5054698;28;20688;-66
2020/12/24 04:33:56;;;;;;;7.13;1.30;;;9.30;99.90;;;;;;5054852;28;20244;-67
2020/12/24 04:36:22;;;;;;;10.00;1.70;;;9.50;99.90;;;;;;5054636;28;20166;-66
2020/12/24 04:38:48;;;;;;;11.77;2.47;;;9.50;99.90;;;;;;5054580;28;20200;-67
2020/12/24 04:41:13;;;;;;;9.20;1.60;;;9.50;99.90;;;;;;5054326;28;20208;-66
2020/12/24 04:43:39;;;;;;;6.33;1.80;;;9.50;99.90;;;;;;5054341;28;20198;-66
2020/12/24 04:46:10;;;;;;;6.10;2.17;;;9.50;99.90;;;;;;5054481;28;20575;-66
2020/12/24 04:48:38;;;;;;;12.40;1.77;;;9.50;99.90;;;;;;5054410;28;20409;-66
2020/12/24 04:51:08;;;;;;;6.30;1.90;;;9.50;99.90;;;;;;5054215;28;20451;-66
2020/12/24 04:53:37;;;;;;;5.93;1.47;;;9.50;99.90;;;;;;5055524;28;20407;-66
2020/12/24 04:56:03;;;;;;;8.17;1.70;;;9.50;99.90;;;;;;5054124;28;20400;-66
2020/12/24 04:58:28;;;;;;;8.30;1.70;;;9.50;99.90;;;;;;5054344;28;20395;-67
2020/12/24 05:00:54;;;;;;;8.63;2.00;;;9.40;99.90;;;;;;5054012;28;20972;-66
2020/12/24 05:03:20;;;;;;;6.20;1.50;;;9.30;99.90;;;;;;5054450;28;20173;-67
2020/12/24 05:05:45;;;;;;;9.20;2.50;;;9.30;99.90;;;;;;5054384;28;20728;-66
2020/12/24 05:08:11;;;;;;;7.27;1.83;;;9.30;99.90;;;;;;5054367;28;20169;-67
2020/12/24 05:10:38;;;;;;;13.23;2.57;;;9.20;99.90;;;;;;5053892;28;20203;-67
2020/12/24 05:13:18;;;;;;;5.57;1.30;;;9.20;99.90;;;;;;5054012;28;20165;-67
2020/12/24 05:15:44;;;;;;;8.00;1.60;;;9.30;99.90;;;;;;5053892;28;20403;-66
2020/12/24 05:18:14;;;;;;;4.73;1.17;;;9.20;99.90;;;;;;5053994;28;20406;-65
2020/12/24 05:20:39;;;;;;;12.00;1.67;;;9.40;99.90;;;;;;5053860;28;20481;-66
2020/12/24 05:23:12;;;;;;;5.43;1.50;;;9.30;99.90;;;;;;5053940;28;20405;-66
2020/12/24 05:25:38;;;;;;;6.67;1.80;;;9.40;99.90;;;;;;5053818;28;20175;-66
2020/12/24 05:28:04;;;;;;;5.13;1.40;;;9.20;99.90;;;;;;5053927;28;20413;-65
2020/12/24 05:30:31;;;;;;;9.20;1.53;;;9.10;99.90;;;;;;5053365;28;20550;-66
2020/12/24 05:32:57;;;;;;;11.20;1.60;;;9.10;1.00;;;;;;5053494;28;20194;-65
2020/12/24 05:35:24;;;;;;;8.50;1.50;;;9.10;99.90;;;;;;5053538;28;20796;-66
2020/12/24 05:37:51;;;;;;;9.87;1.33;;;9.20;99.90;;;;;;5053663;28;20173;-66
2020/12/24 05:40:22;;;;;;;10.20;2.90;;;9.20;99.90;;;;;;5053190;28;20454;-66
2020/12/24 05:42:56;;;;;;;4.60;1.43;;;9.30;99.90;;;;;;5054854;28;20438;-67
2020/12/24 05:45:32;;;;;;;7.23;1.50;;;9.20;99.90;;;;;;5053548;28;20414;-64
2020/12/24 05:48:11;;;;;;;4.30;1.63;;;9.20;99.90;;;;;;5053379;28;20431;-65
2020/12/24 05:50:37;;;;;;;9.23;1.50;;;9.40;99.90;;;;;;5053131;28;20472;-65
2020/12/24 05:53:11;;;;;;;6.10;1.23;;;9.30;99.90;;;;;;5052689;28;20718;-65
2020/12/24 05:55:39;;;;;;;4.80;1.20;;;9.20;99.90;;;;;;5054031;28;20931;-65
2020/12/24 05:58:07;;;;;;;9.10;1.50;;;9.20;99.90;;;;;;5053327;28;20461;-65
2020/12/24 06:00:37;;;;;;;6.10;1.50;;;9.30;99.90;;;;;;5053242;28;20465;-66
2020/12/24 06:03:09;;;;;;;3.40;1.47;;;9.20;1.00;;;;;;5052751;28;20443;-66
2020/12/24 06:05:59;;;;;;;4.03;1.57;;;9.30;1.00;;;;;;5052868;28;20490;-66
2020/12/24 06:08:32;;;;;;;6.30;1.53;;;9.40;1.00;;;;;;5053141;28;20490;-66
2020/12/24 06:11:06;;;;;;;5.77;1.20;;;9.50;1.00;;;;;;5052710;28;20457;-66
2020/12/24 06:13:48;;;;;;;6.13;1.57;;;9.40;1.00;;;;;;5052960;28;20438;-66
2020/12/24 06:16:14;;;;;;;4.60;1.53;;;9.30;1.00;;;;;;5051662;28;20399;-66
2020/12/24 06:18:42;;;;;;;6.03;1.23;;;9.40;1.00;;;;;;5052934;28;20626;-66
2020/12/24 06:21:12;;;;;;;7.13;1.33;;;9.40;1.00;;;;;;5052808;28;20834;-67
2020/12/24 06:23:38;;;;;;;7.27;2.00;;;9.40;1.00;;;;;;5052769;28;20471;-66
2020/12/24 06:26:07;;;;;;;10.50;1.90;;;9.50;67.40;;;;;;5052730;28;20468;-66
2020/12/24 06:28:34;;;;;;;7.30;2.03;;;9.20;1.00;;;;;;5052707;28;20411;-66
2020/12/24 06:31:02;;;;;;;7.03;1.20;;;9.20;99.90;;;;;;5052605;28;20485;-66
2020/12/24 06:33:29;;;;;;;4.30;1.13;;;9.20;99.90;;;;;;5052770;28;20871;-67
2020/12/24 06:35:56;;;;;;;4.73;1.50;;;9.30;99.90;;;;;;5052976;28;20760;-66
2020/12/24 06:38:44;;;;;;;8.77;1.97;;;9.40;99.90;;;;;;5052857;28;20414;-66
2020/12/24 06:41:24;;;;;;;9.30;1.37;;;9.40;1.00;;;;;;5052449;28;20463;-66
2020/12/24 06:43:50;;;;;;;5.00;2.10;;;9.40;99.90;;;;;;5053958;28;20392;-66
2020/12/24 06:46:16;;;;;;;7.27;1.60;;;9.50;99.90;;;;;;5056689;28;20437;-66
2020/12/24 06:48:57;;;;;;;9.53;1.70;;;9.30;99.90;;;;;;5057718;28;20422;-66
2020/12/24 06:51:22;;;;;;;3.87;1.63;;;9.00;1.00;;;;;;5056091;28;20462;-66
2020/12/24 06:53:48;;;;;;;6.43;1.53;;;8.90;99.90;;;;;;5056551;28;20419;-65
2020/12/24 06:56:20;;;;;;;13.60;1.80;;;8.80;99.90;;;;;;5056760;28;20173;-66
2020/12/24 06:58:53;;;;;;;4.37;1.70;;;9.00;1.00;;;;;;5055393;28;20153;-66
2020/12/24 07:01:23;;;;;;;3.47;1.10;;;9.20;99.90;;;;;;5056766;28;20434;-66
2020/12/24 07:03:51;;;;;;;4.77;1.50;;;9.20;39.30;;;;;;5056388;28;20415;-65
2020/12/24 07:06:41;;;;;;;3.73;1.57;;;9.30;99.90;;;;;;5056387;28;20409;-65
2020/12/24 07:09:13;;;;;;;7.70;2.43;;;9.20;1.00;;;;;;5056208;28;20907;-65
2020/12/24 07:11:47;;;;;;;4.10;1.20;;;9.30;99.90;;;;;;5056316;28;20463;-65
2020/12/24 07:14:40;;;;;;;7.00;1.70;;;9.20;99.90;;;;;;5056453;28;20377;-65
2020/12/24 07:17:18;;;;;;;5.90;2.13;;;9.20;99.90;;;;;;5056061;28;20395;-65
2020/12/24 07:19:45;;;;;;;6.97;1.77;;;9.10;99.90;;;;;;5055914;28;20822;-65
2020/12/24 07:22:18;;;;;;;5.77;1.87;;;8.90;1.00;;;;;;5056212;28;20464;-65
2020/12/24 07:25:03;;;;;;;9.63;2.60;;;9.10;1.00;;;;;;5056399;28;20480;-66
2020/12/24 07:27:29;;;;;;;5.43;1.80;;;9.30;99.90;;;;;;5055946;28;20383;-66
2020/12/24 07:29:56;;;;;;;7.77;2.23;;;9.20;99.90;;;;;;5055903;28;20520;-66
2020/12/24 07:32:22;;;;;;;7.40;2.30;;;9.20;79.10;;;;;;5055870;28;20173;-66
2020/12/24 07:34:48;;;;;;;6.40;1.63;;;9.10;99.90;;;;;;5055847;28;20820;-66
2020/12/24 07:37:13;;;;;;;7.07;1.40;;;8.80;1.00;;;;;;5055790;28;20673;-66
2020/12/24 07:39:50;;;;;;;4.80;1.43;;;9.00;99.90;;;;;;5055734;28;20186;-66
2020/12/24 07:42:25;;;;;;;5.30;1.80;;;9.00;99.90;;;;;;5055570;28;20164;-66
2020/12/24 07:44:50;;;;;;;9.97;1.77;;;8.80;1.00;;;;;;5055575;28;20433;-66
2020/12/24 07:47:16;;;;;;;6.23;1.63;;;8.80;1.00;;;;;;5055282;28;20500;-66
2020/12/24 07:49:51;;;;;;;4.97;1.30;;;9.00;38.70;;;;;;5053972;28;20204;-65
2020/12/24 07:52:17;;;;;;;9.60;1.37;;;8.90;99.90;;;;;;5055701;28;20412;-65
2020/12/24 07:54:43;;;;;;;3.40;1.00;;;9.00;1.00;;;;;;5055016;28;20486;-66
2020/12/24 07:57:08;;;;;;;6.20;1.20;;;9.00;1.00;;;;;;5054837;28;20412;-66
2020/12/24 07:59:34;;;;;;;4.93;1.07;;;9.00;18.90;;;;;;5055263;28;20178;-66
2020/12/24 08:02:03;;;;;;;8.10;1.07;;;9.10;1.00;;;;;;5055257;28;20253;-66
2020/12/24 08:04:29;;;;;;;3.87;1.27;;;9.30;99.90;;;;;;5055552;28;20173;-66
2020/12/24 08:06:55;;;;;;;5.80;1.10;;;9.30;1.00;;;;;;5055460;28;20411;-65
2020/12/24 08:09:20;;;;;;;3.83;1.30;;;9.30;1.00;;;;;;5055501;28;20176;-65
2020/12/24 08:11:57;;;;;;;3.87;1.37;;;9.20;1.00;;;;;;5055120;28;20239;-66
2020/12/24 08:14:30;;;;;;;5.50;1.47;;;9.10;1.00;;;;;;5055031;28;20668;-66
2020/12/24 08:17:12;;;;;;;6.50;2.20;;;9.10;99.90;;;;;;5055234;28;20379;-66
2020/12/24 08:19:48;;;;;;;3.10;2.10;;;9.00;1.00;;;;;;5055218;28;20420;-65
2020/12/24 08:22:26;;;;;;;4.47;0.90;;;8.80;1.00;;;;;;5055409;28;20406;-66
2020/12/24 08:24:54;;;;;;;1.57;0.63;;;8.70;15.50;;;;;;5054871;28;20449;-66
2020/12/24 08:27:20;;;;;;;6.87;0.97;;;8.90;1.00;;;;;;5055122;28;20404;-66
2020/12/24 08:29:46;;;;;;;4.90;0.83;;;9.00;1.00;;;;;;5054578;28;20451;-66
2020/12/24 08:32:13;;;;;;;2.70;0.50;;;8.90;99.90;;;;;;5055467;28;20423;-66
2020/12/24 08:34:38;;;;;;;1.83;0.70;;;9.00;99.90;;;;;;5055214;28;20434;-65
2020/12/24 08:37:04;;;;;;;3.00;0.83;;;8.80;99.90;;;;;;5054999;28;20446;-66
2020/12/24 08:39:30;;;;;;;1.90;0.80;;;8.70;1.00;;;;;;5054956;28;20228;-66
2020/12/24 08:41:57;;;;;;;1.73;0.87;;;8.90;1.00;;;;;;5054972;28;20202;-67
2020/12/24 08:44:24;;;;;;;1.75;0.70;;;9.00;1.00;;;;;;5054514;28;20216;-65
2020/12/24 08:47:08;;;;;;;3.15;0.80;;;8.90;1.00;;;;;;5054513;28;20168;-65
2020/12/24 08:49:40;;;;;;;3.60;1.20;;;9.00;1.00;;;;;;5054244;28;20212;-67
2020/12/24 08:52:10;;;;;;;9.43;2.20;;;8.90;1.00;;;;;;5054773;28;20483;-67
2020/12/24 08:54:35;;;;;;;3.42;0.85;;;8.90;1.00;;;;;;5054694;28;20426;-67
2020/12/24 08:57:03;;;;;;;4.67;1.00;;;8.80;1.00;;;;;;5054416;28;20165;-64
2020/12/24 08:59:29;;;;;;;2.80;0.90;;;8.80;1.00;;;;;;5054119;28;20405;-67
2020/12/24 09:01:56;;;;;;;2.30;1.40;;;8.70;1.00;;;;;;5054027;28;20564;-66
2020/12/24 09:04:22;;;;;;;2.87;0.90;;;8.80;1.00;;;;;;5054092;28;20157;-66
2020/12/24 09:06:47;;;;;;;4.50;0.80;;;8.70;1.00;;;;;;5053645;28;20413;-66
2020/12/24 09:09:24;;;;;;;5.47;1.43;;;8.90;1.00;;;;;;5054071;28;20163;-67
2020/12/24 09:11:52;;;;;;;2.67;0.90;;;9.00;1.00;;;;;;5052742;28;20550;-66
2020/12/24 09:14:20;;;;;;;2.87;1.07;;;8.80;1.00;;;;;;5054059;28;20164;-67
2020/12/24 09:17:02;;;;;;;2.30;0.93;;;8.90;1.00;;;;;;5053962;28;20406;-66
2020/12/24 09:19:28;;;;;;;2.70;0.93;;;9.00;1.00;;;;;;5053889;28;20877;-66
2020/12/24 09:21:56;;;;;;;4.30;1.30;;;8.70;1.00;;;;;;5053870;28;20419;-66
2020/12/24 09:24:22;;;;;;;1.63;0.90;;;8.70;1.00;;;;;;5053744;28;20246;-67
2020/12/24 09:26:50;;;;;;;3.77;1.00;;;8.50;99.90;;;;;;5053691;28;20192;-66
2020/12/24 09:29:17;;;;;;;1.83;0.90;;;8.50;1.00;;;;;;5053762;28;20185;-66
2020/12/24 09:31:55;;;;;;;5.50;1.58;;;8.70;1.00;;;;;;5053434;28;20463;-66
2020/12/24 09:34:20;;;;;;;2.63;0.90;;;8.70;1.00;;;;;;5053538;28;20195;-66
2020/12/24 09:36:47;;;;;;;4.10;1.30;;;9.00;99.90;;;;;;5053593;28;20405;-66
2020/12/24 09:39:13;;;;;;;2.93;1.17;;;9.10;99.90;;;;;;5053823;28;20227;-66
2020/12/24 09:41:46;;;;;;;1.43;1.00;;;8.50;1.00;;;;;;5053285;28;20450;-66
2020/12/24 09:44:12;;;;;;;4.00;1.27;;;8.80;99.90;;;;;;5053372;28;20170;-65
2020/12/24 09:46:38;;;;;;;5.33;1.30;;;8.70;99.90;;;;;;5053497;28;20415;-66
2020/12/24 09:49:04;;;;;;;4.68;1.42;;;8.80;1.00;;;;;;5053614;28;20486;-67
2020/12/24 09:51:36;;;;;;;4.63;1.80;;;8.40;1.00;;;;;;5053242;28;20303;-66
2020/12/24 09:54:03;;;;;;;4.47;1.83;;;8.40;1.00;;;;;;5053596;28;20174;-65
2020/12/24 09:56:29;;;;;;;8.23;1.67;;;8.50;1.00;;;;;;5053592;28;20437;-66
2020/12/24 09:58:54;;;;;;;3.30;1.40;;;8.60;99.90;;;;;;5053213;28;20572;-66
2020/12/24 10:01:20;;;;;;;3.33;1.37;;;8.70;1.00;;;;;;5053155;28;20689;-67
2020/12/24 10:03:46;;;;;;;2.77;0.80;;;8.30;1.00;;;;;;5053209;28;20168;-67
2020/12/24 10:06:12;;;;;;;1.17;0.70;;;8.00;99.90;;;;;;5053654;28;20173;-66
2020/12/24 10:08:38;;;;;;;1.25;0.60;;;7.70;99.90;;;;;;5053311;28;20226;-66
2020/12/24 10:11:04;;;;;;;1.20;0.60;;;7.70;1.00;;;;;;5052951;28;20600;-67
2020/12/24 10:13:29;;;;;;;0.93;0.70;;;7.60;99.90;;;;;;5053160;28;20157;-67
2020/12/24 10:15:55;;;;;;;1.17;0.70;;;7.40;99.90;;;;;;5053126;28;20162;-67
2020/12/24 10:18:21;;;;;;;1.30;1.10;;;7.50;99.90;;;;;;5050694;28;20169;-67
2020/12/24 10:20:47;;;;;;;1.75;1.00;;;7.40;99.90;;;;;;5053313;28;20200;-67
2020/12/24 10:23:12;;;;;;;1.40;0.73;;;7.50;99.90;;;;;;5052803;28;20165;-66
2020/12/24 10:25:39;;;;;;;1.50;0.90;;;7.00;99.90;;;;;;5053517;28;20176;-66
2020/12/24 10:28:05;;;;;;;2.00;0.75;;;7.20;99.90;;;;;;5053113;28;20211;-66
2020/12/24 10:30:31;;;;;;;1.23;0.83;;;7.10;1.00;;;;;;5052860;28;20631;-67
2020/12/24 10:32:56;;;;;;;1.40;0.80;;;6.80;99.90;;;;;;5053527;28;20404;-66
2020/12/24 10:35:22;;;;;;;1.33;0.70;;;7.00;99.90;;;;;;5052829;28;20169;-66
2020/12/24 10:37:47;;;;;;;1.10;0.73;;;6.70;99.90;;;;;;5053460;28;20172;-67
2020/12/24 10:40:13;;;;;;;0.90;0.50;;;6.70;39.30;;;;;;5052690;28;20756;-66
2020/12/24 10:42:40;;;;;;;3.93;0.60;;;6.50;5.50;;;;;;5053153;28;20691;-66
2020/12/24 10:45:07;;;;;;;0.90;0.50;;;6.90;1.00;;;;;;5052976;28;20172;-66
2020/12/24 10:47:33;;;;;;;1.73;0.70;;;6.80;1.00;;;;;;5052501;28;20637;-66
2020/12/24 10:49:58;;;;;;;0.80;0.47;;;6.80;1.00;;;;;;5052539;28;20204;-66
2020/12/24 10:52:24;;;;;;;0.90;0.50;;;6.80;99.90;;;;;;5052781;28;20161;-66
2020/12/24 10:54:50;;;;;;;1.33;0.50;;;6.70;1.00;;;;;;5052844;28;20255;-66
2020/12/24 10:57:15;;;;;;;0.90;0.50;;;6.70;1.00;;;;;;5052585;28;20195;-66
2020/12/24 10:59:42;;;;;;;0.90;0.50;;;6.80;1.00;;;;;;5052544;28;20214;-66
2020/12/24 11:02:08;;;;;;;0.70;0.50;;;6.90;99.90;;;;;;5052744;28;20211;-66
2020/12/24 11:04:33;;;;;;;0.80;0.50;;;7.00;1.00;;;;;;5052592;28;20165;-66
2020/12/24 11:06:59;;;;;;;1.20;0.60;;;7.20;99.90;;;;;;5052733;28;20169;-66
2020/12/24 11:09:24;;;;;;;1.63;0.40;;;7.10;99.90;;;;;;5052379;28;20414;-66
2020/12/24 11:11:50;;;;;;;0.80;0.43;;;7.10;99.90;;;;;;5052181;28;20261;-65
2020/12/24 11:14:16;;;;;;;1.30;0.70;;;6.70;99.90;;;;;;5051123;28;20165;-65
2020/12/24 11:16:41;;;;;;;0.70;0.40;;;6.90;1.00;;;;;;5052505;28;20248;-66
2020/12/24 11:19:07;;;;;;;0.80;0.50;;;7.10;1.00;;;;;;5052316;28;20526;-65
2020/12/24 11:21:33;;;;;;;0.87;0.67;;;7.10;1.00;;;;;;5052288;28;20553;-66
2020/12/24 11:24:04;;;;;;;0.70;0.40;;;6.80;1.00;;;;;;5051066;28;20308;-65
2020/12/24 11:26:30;;;;;;;0.75;0.47;;;7.00;99.90;;;;;;5052708;28;20165;-66
2020/12/24 11:28:55;;;;;;;1.97;0.50;;;7.20;99.90;;;;;;5052404;28;20167;-65
2020/12/24 11:31:25;;;;;;;1.03;0.47;;;7.30;99.90;;;;;;5055571;28;20279;-65
2020/12/24 11:33:51;;;;;;;1.10;0.60;;;7.50;99.90;;;;;;5055920;28;20206;-66
2020/12/24 11:36:17;;;;;;;1.73;0.67;;;7.20;99.90;;;;;;5055847;28;20586;-65
2020/12/24 11:38:43;;;;;;;2.55;0.60;;;7.20;1.00;;;;;;5054507;28;20192;-66
2020/12/24 11:41:17;;;;;;;1.10;0.97;;;7.50;99.90;;;;;;5056266;28;20208;-64
2020/12/24 11:43:43;;;;;;;0.90;0.50;;;7.60;99.90;;;;;;5054446;28;20548;-65
2020/12/24 11:46:10;;;;;;;1.00;0.70;;;7.70;99.90;;;;;;5055869;28;20219;-67
2020/12/24 11:48:36;;;;;;;1.05;0.60;;;7.50;99.90;;;;;;5055748;28;20219;-66
2020/12/24 11:51:05;;;;;;;0.85;0.50;;;7.70;99.90;;;;;;5055541;28;20261;-66
2020/12/24 11:53:31;;;;;;;0.80;0.50;;;6.90;99.90;;;;;;5055633;28;20184;-66
2020/12/24 11:55:57;;;;;;;0.90;0.50;;;7.00;99.90;;;;;;5055872;28;20176;-66
2020/12/24 11:58:22;;;;;;;1.20;0.70;;;7.30;99.90;;;;;;5055382;28;20761;-66
2020/12/24 12:00:48;;;;;;;1.10;0.67;;;7.50;99.90;;;;;;5055376;28;20538;-66
2020/12/24 12:03:13;;;;;;;1.20;0.80;;;7.50;99.90;;;;;;5055608;28;20633;-66
2020/12/24 12:05:39;;;;;;;1.33;0.77;;;7.70;99.90;;;;;;5055499;28;20212;-66
2020/12/24 12:08:05;;;;;;;1.00;0.60;;;7.50;99.90;;;;;;5055317;28;20180;-65
2020/12/24 12:10:30;;;;;;;1.30;0.70;;;7.40;99.90;;;;;;5054856;28;20479;-65
2020/12/24 12:12:56;;;;;;;2.60;1.00;;;7.60;99.90;;;;;;5055594;28;20537;-66
2020/12/24 12:15:22;;;;;;;2.97;1.00;;;7.50;99.90;;;;;;5054016;28;20172;-66
2020/12/24 12:17:47;;;;;;;2.10;1.30;;;7.10;99.90;;;;;;5055344;28;20227;-66
2020/12/24 12:20:13;;;;;;;2.13;1.63;;;7.00;1.00;;;;;;5055428;28;20220;-66
2020/12/24 12:22:38;;;;;;;1.50;1.33;;;7.20;99.90;;;;;;5055100;28;20203;-66
2020/12/24 12:25:04;;;;;;;1.83;1.70;;;6.90;1.00;;;;;;5055048;28;20177;-66
2020/12/24 12:27:29;;;;;;;2.47;2.07;;;7.20;99.90;;;;;;5055261;28;20203;-66
2020/12/24 12:29:55;;;;;;;2.50;2.00;;;7.20;99.90;;;;;;5054986;28;20220;-67
2020/12/24 12:32:20;;;;;;;1.70;1.37;;;7.20;99.90;;;;;;5055052;28;20211;-65
2020/12/24 12:34:48;;;;;;;2.13;1.73;;;7.30;99.90;;;;;;5054990;28;20165;-66
2020/12/24 12:37:15;;;;;;;2.97;2.22;;;6.90;1.00;;;;;;5054935;28;20626;-66
2020/12/24 12:39:40;;;;;;;4.10;2.90;;;7.20;1.00;;;;;;5054568;28;20251;-66
2020/12/24 12:42:06;;;;;;;2.47;1.90;;;7.10;99.90;;;;;;5054300;28;20610;-66
2020/12/24 12:44:31;;;;;;;2.20;2.00;;;6.80;99.90;;;;;;5054999;28;20184;-65
2020/12/24 12:46:57;;;;;;;3.17;2.33;;;6.40;1.00;;;;;;5054757;28;20173;-66
2020/12/24 12:49:23;;;;;;;5.60;2.83;;;6.70;17.40;;;;;;5054689;28;20649;-67
2020/12/24 12:51:50;;;;;;;3.03;2.60;;;6.90;1.00;;;;;;5054718;28;20219;-67
2020/12/24 12:54:16;;;;;;;4.00;2.65;;;7.10;1.00;;;;;;5054390;28;20161;-66
2020/12/24 12:56:44;;;;;;;3.50;3.20;;;7.10;1.00;;;;;;5054363;28;20165;-66
2020/12/24 12:59:10;;;;;;;4.28;3.88;;;7.30;1.00;;;;;;5054253;28;20176;-66